Terminal Aerodrome Forecast
Issued by NWS

Home | Current Version | Previous Version | Text Only | Print | Product List | Glossary On
Versions: 1 2 3 4 5 6 7 8 9 10 11 12 13
791
FTUS42 KMLB 021720
TAFSUA
TAF
KSUA 021720Z 0218/0318 02012KT P6SM SCT020 SCT300
     FM030000 02008KT P6SM SCT035 SCT300
     FM031500 06012KT P6SM SCT030 SCT300=

USA.gov is the U.S. government's official web portal to all federal, state and local government web resources and services.